createdAt,value
2022-11-13T00:02:33.728Z,19.20
2022-11-13T00:10:47.432Z,30.83
2022-11-13T00:13:56.883Z,24.17
2022-11-13T00:16:40.322Z,23.67
2022-11-13T00:22:37.556Z,27.27
2022-11-13T00:28:03.668Z,24.47
2022-11-13T00:30:37.772Z,18.83
2022-11-13T00:33:55.039Z,26.10
2022-11-13T00:36:36.784Z,20.43
2022-11-13T00:39:10.756Z,19.33
2022-11-13T00:44:29.962Z,24.10
2022-11-13T00:47:09.511Z,21.00
2022-11-13T00:50:02.528Z,30.17
2022-11-13T00:52:35.852Z,22.37
2022-11-13T00:55:32.110Z,25.43
2022-11-13T00:58:03.907Z,25.10
2022-11-13T01:00:33.526Z,25.60
2022-11-13T01:03:11.010Z,21.63
2022-11-13T01:06:00.413Z,19.90
2022-11-13T01:08:30.031Z,32.77
2022-11-13T01:10:59.659Z,25.70
2022-11-13T01:13:33.105Z,19.13
2022-11-13T01:16:07.123Z,26.73
2022-11-13T01:22:20.946Z,17.63
2022-11-13T01:24:54.927Z,35.53
2022-11-13T01:31:01.653Z,22.23
2022-11-13T01:33:33.024Z,22.13
2022-11-13T01:36:08.709Z,26.73
2022-11-13T01:38:41.776Z,22.83
2022-11-13T01:41:39.579Z,27.77
2022-11-13T01:44:18.769Z,24.50
2022-11-13T01:47:07.761Z,27.20
2022-11-13T01:49:42.877Z,17.97
2022-11-13T01:52:18.820Z,28.03
2022-11-13T01:59:17.602Z,24.37
2022-11-13T02:02:17.577Z,22.73
2022-11-13T02:08:01.795Z,22.80
2022-11-13T02:13:06.608Z,18.80
2022-11-13T02:15:37.813Z,21.77
2022-11-13T02:18:07.006Z,19.67
2022-11-13T02:20:44.707Z,18.17
2022-11-13T02:23:22.300Z,23.33
2022-11-13T02:25:55.245Z,17.63
2022-11-13T02:28:24.644Z,17.53
2022-11-13T02:30:53.833Z,24.90
2022-11-13T02:33:28.294Z,20.93
2022-11-13T02:35:57.669Z,16.90
2022-11-13T02:38:27.281Z,21.10
2022-11-13T02:40:58.015Z,20.60
2022-11-13T02:43:27.046Z,24.30
2022-11-13T02:45:56.104Z,19.03
2022-11-13T02:48:25.523Z,19.20
2022-11-13T02:50:54.963Z,24.67
2022-11-13T02:53:24.443Z,21.80
2022-11-13T02:55:54.512Z,23.83
2022-11-13T02:58:25.565Z,21.63
2022-11-13T03:00:54.833Z,24.00
2022-11-13T03:03:48.230Z,16.50
2022-11-13T03:06:12.498Z,16.47
2022-11-13T03:08:41.419Z,17.20
2022-11-13T03:11:11.629Z,23.37
2022-11-13T03:13:42.150Z,17.90
2022-11-13T03:16:12.489Z,20.30
2022-11-13T03:18:41.877Z,18.80
2022-11-13T03:21:13.477Z,23.13
2022-11-13T03:23:45.316Z,19.77
2022-11-13T03:26:15.721Z,16.83
2022-11-13T03:28:46.151Z,22.10
2022-11-13T03:31:15.038Z,16.13
2022-11-13T03:33:43.999Z,18.93
2022-11-13T03:36:13.022Z,19.80
2022-11-13T03:38:42.198Z,18.43
2022-11-13T03:41:11.217Z,21.27
2022-11-13T03:43:40.097Z,22.40
2022-11-13T03:46:11.580Z,18.77
2022-11-13T03:48:40.517Z,17.93
2022-11-13T03:51:09.937Z,16.90
2022-11-13T03:53:38.805Z,20.50
2022-11-13T03:56:08.237Z,15.23
2022-11-13T03:58:40.070Z,17.27
2022-11-13T04:01:10.897Z,17.43
2022-11-13T04:03:39.877Z,14.37
2022-11-13T04:06:09.876Z,16.87
2022-11-13T04:08:38.845Z,17.47
2022-11-13T04:11:09.360Z,21.77
2022-11-13T04:13:38.299Z,17.40
2022-11-13T04:16:07.758Z,17.13
2022-11-13T04:18:38.066Z,25.27
2022-11-13T04:21:07.577Z,21.93
2022-11-13T04:23:36.536Z,23.57
2022-11-13T04:26:05.708Z,17.63
2022-11-13T04:28:34.575Z,17.53
2022-11-13T04:31:05.384Z,15.77
2022-11-13T04:33:34.305Z,19.37
2022-11-13T04:36:05.167Z,18.60
2022-11-13T04:38:34.044Z,17.17
2022-11-13T04:41:20.104Z,18.10
2022-11-13T04:43:48.998Z,17.20
2022-11-13T04:46:17.878Z,14.53
2022-11-13T04:48:46.900Z,16.97
2022-11-13T04:51:17.216Z,17.73
2022-11-13T04:53:46.218Z,15.23
2022-11-13T04:56:15.057Z,23.77
2022-11-13T04:58:44.000Z,22.33
2022-11-13T05:01:12.901Z,18.73
2022-11-13T05:03:41.856Z,21.43
2022-11-13T05:06:12.639Z,15.97
2022-11-13T05:08:42.977Z,18.07
2022-11-13T05:11:11.856Z,18.50
2022-11-13T05:13:40.784Z,17.50
2022-11-13T05:16:11.537Z,21.67
2022-11-13T05:18:41.320Z,27.87
2022-11-13T05:21:11.118Z,16.53
2022-11-13T05:23:40.117Z,29.07
2022-11-13T05:26:12.340Z,16.93
2022-11-13T05:28:41.830Z,17.67
2022-11-13T05:31:12.750Z,30.63
2022-11-13T05:33:42.857Z,33.77
2022-11-13T05:36:13.635Z,16.63
2022-11-13T05:38:43.138Z,26.80
2022-11-13T05:41:16.824Z,29.17
2022-11-13T05:43:46.316Z,25.37
2022-11-13T05:46:16.635Z,19.10
2022-11-13T05:48:46.243Z,25.43
2022-11-13T05:51:16.776Z,22.67
2022-11-13T05:53:46.306Z,32.13
2022-11-13T05:56:18.971Z,30.70
2022-11-13T05:58:48.958Z,23.80
2022-11-13T06:01:20.224Z,23.30
2022-11-13T06:03:50.016Z,20.37
2022-11-13T06:06:20.596Z,19.57
2022-11-13T06:08:50.616Z,20.70
2022-11-13T06:11:22.641Z,23.90
2022-11-13T06:13:53.180Z,14.23
2022-11-13T06:16:23.763Z,24.80
2022-11-13T06:18:55.756Z,16.87
2022-11-13T06:21:26.455Z,21.47
2022-11-13T06:23:55.698Z,20.73
2022-11-13T06:26:28.683Z,19.27
2022-11-13T06:28:57.877Z,17.37
2022-11-13T06:31:29.163Z,18.13
2022-11-13T06:33:59.938Z,16.77
2022-11-13T06:36:30.658Z,33.97
2022-11-13T06:38:59.882Z,21.13
2022-11-13T06:41:31.824Z,18.07
2022-11-13T06:44:03.307Z,19.10
2022-11-13T06:46:32.966Z,18.73
2022-11-13T06:49:02.396Z,24.77
2022-11-13T06:51:32.571Z,24.07
2022-11-13T06:54:01.506Z,25.47
2022-11-13T06:56:32.237Z,24.93
2022-11-13T06:59:05.067Z,18.37
2022-11-13T07:01:36.731Z,21.33
2022-11-13T07:04:06.676Z,23.17
2022-11-13T07:06:40.136Z,23.93
2022-11-13T07:09:09.718Z,19.27
2022-11-13T07:11:40.126Z,19.63
2022-11-13T07:14:12.341Z,28.40
2022-11-13T07:17:04.758Z,22.87
2022-11-13T07:19:30.554Z,20.70
2022-11-13T07:21:59.520Z,19.60
2022-11-13T07:24:28.327Z,15.83
2022-11-13T07:26:59.197Z,16.87
2022-11-13T07:29:28.115Z,18.20
2022-11-13T07:31:59.497Z,17.57
2022-11-13T07:34:28.317Z,23.03
2022-11-13T07:36:57.124Z,17.43
2022-11-13T07:39:26.073Z,21.10
2022-11-13T07:41:54.845Z,20.90
2022-11-13T07:44:52.818Z,21.97
2022-11-13T07:47:14.107Z,22.37
2022-11-13T07:49:42.972Z,17.17
2022-11-13T07:52:11.802Z,20.90
2022-11-13T07:54:40.532Z,17.33
2022-11-13T07:57:09.580Z,20.73
2022-11-13T07:59:40.831Z,19.57
2022-11-13T08:02:15.523Z,19.77
2022-11-13T08:04:44.498Z,23.03
2022-11-13T08:07:13.985Z,17.03
2022-11-13T08:09:42.812Z,18.47
2022-11-13T08:12:11.556Z,17.67
2022-11-13T08:14:42.136Z,17.50
2022-11-13T08:17:10.922Z,18.83
2022-11-13T08:19:39.697Z,18.53
2022-11-13T08:22:08.785Z,18.27
2022-11-13T08:24:39.346Z,22.10
2022-11-13T08:27:09.004Z,22.23
2022-11-13T08:29:38.470Z,21.07
2022-11-13T08:32:09.384Z,20.63
2022-11-13T08:34:38.471Z,18.60
2022-11-13T08:37:07.257Z,21.40
2022-11-13T08:39:36.425Z,21.43
2022-11-13T08:42:05.928Z,21.53
2022-11-13T08:44:34.827Z,28.40
2022-11-13T08:47:03.755Z,24.87
2022-11-13T08:49:33.949Z,23.73
2022-11-13T08:52:02.957Z,21.20
2022-11-13T08:54:32.108Z,20.37
2022-11-13T08:57:05.654Z,19.43
2022-11-13T08:59:35.287Z,21.73
2022-11-13T09:02:04.139Z,20.33
2022-11-13T09:04:34.359Z,21.70
2022-11-13T09:07:06.077Z,25.13
2022-11-13T09:09:35.459Z,21.67
2022-11-13T09:12:04.298Z,20.80
2022-11-13T09:14:33.295Z,21.13
2022-11-13T09:17:02.088Z,21.20
2022-11-13T09:19:30.895Z,21.50
2022-11-13T09:22:01.298Z,24.53
2022-11-13T09:24:30.145Z,18.67
2022-11-13T09:27:10.629Z,14.90
2022-11-13T09:29:54.253Z,19.10
2022-11-13T09:32:31.533Z,18.90
2022-11-13T09:35:00.783Z,20.33
2022-11-13T09:37:32.905Z,16.20
2022-11-13T09:40:01.883Z,18.90
2022-11-13T09:42:32.754Z,14.30
2022-11-13T09:45:07.624Z,11.27
2022-11-13T09:47:42.119Z,12.03
2022-11-13T09:50:16.918Z,11.63
2022-11-13T09:52:48.310Z,8.27
2022-11-13T09:55:20.422Z,9.33
2022-11-13T09:57:59.391Z,9.07
2022-11-13T10:00:30.818Z,8.40
2022-11-13T10:03:46.647Z,7.10
2022-11-13T10:06:23.308Z,8.50
2022-11-13T10:09:00.585Z,8.80
2022-11-13T10:11:39.381Z,10.03
2022-11-13T10:14:17.912Z,8.97
2022-11-13T10:16:51.317Z,8.90
2022-11-13T10:19:26.972Z,6.70
2022-11-13T10:22:19.685Z,8.87
2022-11-13T10:24:54.293Z,6.60
2022-11-13T10:27:24.980Z,8.03
2022-11-13T10:29:53.902Z,7.40
2022-11-13T10:32:27.320Z,7.17
2022-11-13T10:35:02.323Z,9.17
2022-11-13T10:37:45.588Z,10.43
2022-11-13T10:40:25.861Z,8.67
2022-11-13T10:42:54.691Z,10.87
2022-11-13T10:45:24.191Z,10.07
2022-11-13T10:48:08.963Z,7.47
2022-11-13T10:50:38.305Z,8.63
2022-11-13T10:53:17.730Z,10.90
2022-11-13T10:55:52.211Z,10.93
2022-11-13T10:58:21.922Z,7.87
2022-11-13T11:00:51.173Z,9.33
2022-11-13T11:03:22.062Z,16.50
2022-11-13T11:05:55.040Z,18.87
2022-11-13T11:08:28.740Z,8.83
2022-11-13T11:11:19.183Z,10.70
2022-11-13T11:13:48.396Z,9.33
2022-11-13T11:16:22.172Z,9.30
2022-11-13T11:18:57.479Z,7.30
2022-11-13T11:21:30.482Z,8.67
2022-11-13T11:24:04.732Z,7.47
2022-11-13T11:26:40.224Z,8.37
2022-11-13T11:29:19.112Z,7.13
2022-11-13T11:31:54.462Z,7.03
2022-11-13T11:34:27.353Z,4.73
2022-11-13T11:37:01.806Z,4.57
2022-11-13T11:39:37.212Z,6.27
2022-11-13T11:42:20.112Z,4.90
2022-11-13T11:45:09.224Z,5.87
2022-11-13T11:47:38.203Z,6.67
2022-11-13T11:50:13.964Z,6.73
2022-11-13T11:52:58.192Z,8.97
2022-11-13T11:55:40.911Z,10.40
2022-11-13T11:58:26.800Z,11.37
2022-11-13T12:01:02.678Z,6.80
2022-11-13T12:03:54.091Z,8.17
2022-11-13T12:06:34.739Z,8.67
2022-11-13T12:09:09.960Z,11.30
2022-11-13T12:11:43.852Z,7.73
2022-11-13T12:14:23.093Z,7.13
2022-11-13T12:17:05.870Z,6.50
2022-11-13T12:19:51.895Z,6.97
2022-11-13T12:22:31.069Z,6.13
2022-11-13T12:25:14.582Z,6.93
2022-11-13T12:27:49.433Z,6.43
2022-11-13T12:30:22.666Z,6.73
2022-11-13T12:33:15.471Z,6.03
2022-11-13T12:35:48.292Z,12.77
2022-11-13T12:38:29.454Z,6.47
2022-11-13T12:41:07.091Z,5.10
2022-11-13T12:43:59.430Z,6.70
2022-11-13T12:46:38.631Z,4.60
2022-11-13T12:49:27.442Z,11.37
2022-11-13T12:51:57.780Z,5.97
2022-11-13T12:54:34.222Z,6.30
2022-11-13T12:57:24.472Z,5.27
2022-11-13T12:59:58.299Z,5.03
2022-11-13T13:02:46.112Z,7.33
2022-11-13T13:05:27.131Z,5.43
2022-11-13T13:08:18.204Z,7.73
2022-11-13T13:11:11.614Z,8.00
2022-11-13T13:13:46.428Z,12.13
2022-11-13T13:16:24.481Z,4.63
2022-11-13T13:18:54.860Z,8.73
2022-11-13T13:21:24.373Z,10.83
2022-11-13T13:23:54.741Z,14.07
2022-11-13T13:26:26.371Z,11.67
2022-11-13T13:28:56.439Z,12.07
2022-11-13T13:31:37.527Z,10.37
2022-11-13T13:34:35.428Z,6.50
2022-11-13T13:37:18.588Z,9.27
2022-11-13T13:39:56.867Z,7.43
2022-11-13T13:42:47.017Z,6.03
2022-11-13T13:45:29.277Z,6.67
2022-11-13T13:47:59.875Z,6.63
2022-11-13T13:50:34.007Z,9.53
2022-11-13T13:53:03.886Z,13.40
2022-11-13T13:55:35.756Z,11.23
2022-11-13T13:58:09.738Z,9.90
2022-11-13T14:00:59.127Z,8.97
2022-11-13T14:03:29.604Z,6.77
2022-11-13T14:06:10.986Z,10.90
2022-11-13T14:08:40.542Z,24.77
2022-11-13T14:11:19.393Z,21.73
2022-11-13T14:13:48.359Z,64.67
2022-11-13T14:16:17.570Z,90.93
2022-11-13T14:18:46.429Z,165.90
2022-11-13T14:21:22.625Z,23.57
2022-11-13T14:23:53.206Z,37.93
2022-11-13T14:26:22.548Z,11.47
2022-11-13T14:28:56.583Z,11.20
2022-11-13T14:31:30.737Z,9.30
2022-11-13T14:34:03.553Z,8.63
2022-11-13T14:36:35.698Z,15.50
2022-11-13T14:39:05.206Z,11.60
2022-11-13T14:41:37.196Z,11.70
2022-11-13T14:44:06.632Z,8.23
2022-11-13T14:46:38.001Z,8.67
2022-11-13T14:49:15.783Z,9.40
2022-11-13T14:51:57.068Z,13.50
2022-11-13T14:55:00.067Z,15.30
2022-11-13T14:57:23.086Z,13.60
2022-11-13T14:59:52.166Z,13.87
2022-11-13T15:02:22.221Z,19.73
2022-11-13T15:04:51.865Z,17.07
2022-11-13T15:07:31.266Z,21.70
2022-11-13T15:10:01.881Z,19.27
2022-11-13T15:12:30.818Z,24.10
2022-11-13T15:14:59.736Z,28.10
2022-11-13T15:17:28.840Z,28.50
2022-11-13T15:19:58.303Z,24.83
2022-11-13T15:22:31.791Z,26.33
2022-11-13T15:25:01.648Z,25.60
2022-11-13T15:27:31.058Z,27.67
2022-11-13T15:30:00.970Z,30.23
2022-11-13T15:32:31.127Z,28.87
2022-11-13T15:35:00.373Z,41.87
2022-11-13T15:37:30.970Z,35.33
2022-11-13T15:40:03.177Z,19.13
2022-11-13T15:42:35.028Z,11.73
2022-11-13T15:45:06.691Z,7.40
2022-11-13T15:47:37.151Z,11.03
2022-11-13T15:50:13.929Z,10.60
2022-11-13T15:52:48.107Z,8.43
2022-11-13T15:55:32.094Z,9.43
2022-11-13T15:58:02.070Z,8.20
2022-11-13T16:00:32.114Z,7.77
2022-11-13T16:03:01.973Z,15.13
2022-11-13T16:05:30.924Z,13.57
2022-11-13T16:08:01.621Z,12.97
2022-11-13T16:10:30.535Z,9.70
2022-11-13T16:12:59.863Z,8.73
2022-11-13T16:15:29.087Z,13.83
2022-11-13T16:18:00.851Z,9.20
2022-11-13T16:20:33.012Z,12.03
2022-11-13T16:23:03.830Z,10.83
2022-11-13T16:25:32.811Z,8.50
2022-11-13T16:28:02.056Z,8.00
2022-11-13T16:30:31.837Z,6.67
2022-11-13T16:33:06.021Z,7.63
2022-11-13T16:35:34.882Z,11.50
2022-11-13T16:38:06.277Z,7.17
2022-11-13T16:40:35.592Z,10.30
2022-11-13T16:43:04.491Z,8.77
2022-11-13T16:45:33.459Z,9.13
2022-11-13T16:48:03.170Z,11.53
2022-11-13T16:50:34.100Z,8.47
2022-11-13T16:53:05.291Z,23.57
2022-11-13T16:55:34.962Z,17.27
2022-11-13T16:58:04.521Z,12.83
2022-11-13T17:00:34.384Z,19.07
2022-11-13T17:03:03.493Z,19.37
2022-11-13T17:05:32.854Z,12.27
2022-11-13T17:08:02.510Z,22.53
2022-11-13T17:10:33.573Z,10.10
2022-11-13T17:13:03.497Z,19.90
2022-11-13T17:15:34.086Z,20.93
2022-11-13T17:18:05.261Z,27.07
2022-11-13T17:20:37.244Z,27.67
2022-11-13T17:23:06.197Z,31.87
2022-11-13T17:25:36.507Z,33.50
2022-11-13T17:28:05.571Z,25.60
2022-11-13T17:30:34.657Z,15.93
2022-11-13T17:33:03.858Z,14.33
2022-11-13T17:35:33.350Z,14.43
2022-11-13T17:38:02.978Z,15.10
2022-11-13T17:40:32.075Z,15.20
2022-11-13T17:43:03.269Z,17.97
2022-11-13T17:45:32.599Z,17.90
2022-11-13T17:48:01.985Z,14.87
2022-11-13T17:50:31.336Z,12.23
2022-11-13T17:53:00.119Z,13.07
2022-11-13T17:55:29.338Z,19.10
2022-11-13T17:58:03.099Z,22.10
2022-11-13T18:00:33.097Z,23.93
2022-11-13T18:03:02.481Z,26.67
2022-11-13T18:05:32.220Z,29.30
2022-11-13T18:08:05.493Z,32.93
2022-11-13T18:10:34.921Z,25.10
2022-11-13T18:13:06.539Z,25.30
2022-11-13T18:15:37.026Z,22.23
2022-11-13T18:18:07.379Z,14.77
2022-11-13T18:20:37.377Z,12.93
2022-11-13T18:23:06.564Z,11.80
2022-11-13T18:25:39.629Z,13.77
2022-11-13T18:28:10.419Z,10.20
2022-11-13T18:30:40.816Z,9.40
2022-11-13T18:33:10.194Z,11.00
2022-11-13T18:35:39.618Z,13.23
2022-11-13T18:38:09.009Z,16.33
2022-11-13T18:40:40.868Z,15.57
2022-11-13T18:43:11.938Z,25.60
2022-11-13T18:45:41.718Z,41.63
2022-11-13T18:48:11.068Z,32.50
2022-11-13T18:50:40.517Z,36.00
2022-11-13T18:53:09.848Z,39.13
2022-11-13T18:55:39.286Z,29.53
2022-11-13T18:58:09.309Z,24.33
2022-11-13T19:00:40.216Z,23.23
2022-11-13T19:03:17.351Z,19.67
2022-11-13T19:05:48.923Z,19.37
2022-11-13T19:08:18.257Z,14.33
2022-11-13T19:10:47.303Z,17.97
2022-11-13T19:13:16.876Z,12.17
2022-11-13T19:15:50.756Z,15.10
2022-11-13T19:18:20.064Z,7.00
2022-11-13T19:20:50.949Z,7.87
2022-11-13T19:23:20.302Z,9.13
2022-11-13T19:25:50.429Z,22.77
2022-11-13T19:28:20.649Z,12.60
2022-11-13T19:30:55.197Z,9.87
2022-11-13T19:33:25.543Z,8.13
2022-11-13T19:35:57.099Z,15.93
2022-11-13T19:38:28.366Z,11.10
2022-11-13T19:40:57.488Z,12.37
2022-11-13T19:43:28.057Z,10.33
2022-11-13T19:45:58.987Z,43.23
2022-11-13T19:48:28.187Z,151.57
2022-11-13T19:51:02.997Z,43.70
2022-11-13T19:53:32.880Z,45.40
2022-11-13T19:56:04.104Z,159.93
2022-11-13T19:58:33.679Z,126.43
2022-11-13T20:01:12.581Z,26.27
2022-11-13T20:03:42.505Z,27.80
2022-11-13T20:06:18.221Z,20.43
2022-11-13T20:08:47.216Z,16.20
2022-11-13T20:11:16.594Z,15.90
2022-11-13T20:13:47.075Z,8.53
2022-11-13T20:16:30.930Z,9.93
2022-11-13T20:19:05.537Z,11.03
2022-11-13T20:21:35.863Z,12.67
2022-11-13T20:24:08.097Z,54.77
2022-11-13T20:26:40.651Z,110.10
2022-11-13T20:29:10.147Z,85.77
2022-11-13T20:31:40.938Z,56.10
2022-11-13T20:34:10.935Z,28.23
2022-11-13T20:36:39.887Z,27.80
2022-11-13T20:39:10.388Z,31.07
2022-11-13T20:41:39.958Z,32.40
2022-11-13T20:44:10.573Z,30.50
2022-11-13T20:46:41.108Z,20.37
2022-11-13T20:49:10.712Z,24.70
2022-11-13T20:51:40.664Z,35.50
2022-11-13T20:54:09.681Z,34.43
2022-11-13T20:56:39.297Z,27.23
2022-11-13T20:59:09.278Z,27.80
2022-11-13T21:01:39.627Z,32.60
2022-11-13T21:04:09.105Z,27.80
2022-11-13T21:06:38.239Z,32.40
2022-11-13T21:09:07.354Z,29.80
2022-11-13T21:11:36.343Z,22.93
2022-11-13T21:14:05.372Z,28.07
2022-11-13T21:16:34.535Z,21.30
2022-11-13T21:19:05.058Z,16.97
2022-11-13T21:21:35.807Z,24.83
2022-11-13T21:24:04.980Z,22.40
2022-11-13T21:26:34.053Z,12.63
2022-11-13T21:29:02.821Z,9.77
2022-11-13T21:31:31.671Z,7.13
2022-11-13T21:34:01.341Z,7.00
2022-11-13T21:36:32.041Z,9.47
2022-11-13T21:39:03.917Z,5.10
2022-11-13T21:41:32.784Z,4.97
2022-11-13T21:44:03.788Z,6.57
2022-11-13T21:46:35.032Z,10.67
2022-11-13T21:49:05.991Z,17.23
2022-11-13T21:51:38.216Z,39.23
2022-11-13T21:54:07.242Z,25.87
2022-11-13T21:56:39.343Z,40.80
2022-11-13T21:59:08.404Z,59.30
2022-11-13T22:01:38.909Z,56.00
2022-11-13T22:04:08.271Z,42.77
2022-11-13T22:06:39.867Z,32.17
2022-11-13T22:09:13.978Z,36.80
2022-11-13T22:11:42.806Z,31.17
2022-11-13T22:14:12.298Z,36.03
2022-11-13T22:16:42.979Z,31.13
2022-11-13T22:19:16.366Z,48.97
2022-11-13T22:21:47.485Z,56.83
2022-11-13T22:24:17.247Z,51.07
2022-11-13T22:26:48.021Z,40.63
2022-11-13T22:29:17.285Z,46.27
2022-11-13T22:31:46.965Z,19.07
2022-11-13T22:34:15.806Z,17.03
2022-11-13T22:36:46.386Z,11.33
2022-11-13T22:39:15.188Z,5.63
2022-11-13T22:41:43.940Z,5.43
2022-11-13T22:44:15.808Z,8.60
2022-11-13T22:46:44.634Z,11.10
2022-11-13T22:49:14.043Z,8.83
2022-11-13T22:51:43.337Z,12.70
2022-11-13T22:54:14.451Z,14.03
2022-11-13T22:56:43.769Z,16.27
2022-11-13T22:59:15.030Z,13.20
2022-11-13T23:01:46.891Z,14.73
2022-11-13T23:04:15.949Z,8.17
2022-11-13T23:06:44.818Z,11.77
2022-11-13T23:09:15.328Z,11.13
2022-11-13T23:11:44.248Z,10.40
2022-11-13T23:14:16.141Z,11.50
2022-11-13T23:16:45.057Z,11.80
2022-11-13T23:19:14.289Z,16.40
2022-11-13T23:21:43.227Z,6.97
2022-11-13T23:24:12.445Z,12.57
2022-11-13T23:26:42.815Z,12.47
2022-11-13T23:29:12.673Z,13.13
2022-11-13T23:31:41.432Z,15.23
2022-11-13T23:34:10.598Z,13.00
2022-11-13T23:36:39.381Z,11.03
2022-11-13T23:39:09.291Z,11.07
2022-11-13T23:41:38.463Z,6.30
2022-11-13T23:44:09.912Z,8.47
2022-11-13T23:46:38.934Z,7.47
2022-11-13T23:49:07.772Z,4.93
2022-11-13T23:51:36.572Z,3.60
2022-11-13T23:54:05.685Z,8.53
2022-11-13T23:56:34.469Z,8.20
2022-11-13T23:59:03.848Z,7.17
